sensor_id;sensor_type;location;lat;lon;timestamp;P1;durP1;ratioP1;P2;durP2;ratioP2
8889;SDS011;4481;43.406;24.454;2023-04-09T00:01:26;34.57;;;27.23;;
8889;SDS011;4481;43.406;24.454;2023-04-09T00:03:53;32.40;;;24.57;;
8889;SDS011;4481;43.406;24.454;2023-04-09T00:06:19;28.90;;;23.17;;
8889;SDS011;4481;43.406;24.454;2023-04-09T00:08:45;27.13;;;24.23;;
8889;SDS011;4481;43.406;24.454;2023-04-09T00:11:12;25.37;;;22.60;;
8889;SDS011;4481;43.406;24.454;2023-04-09T00:13:38;29.07;;;23.47;;
8889;SDS011;4481;43.406;24.454;2023-04-09T00:16:04;27.80;;;23.10;;
8889;SDS011;4481;43.406;24.454;2023-04-09T00:18:30;30.40;;;25.20;;
8889;SDS011;4481;43.406;24.454;2023-04-09T00:20:56;31.27;;;26.17;;
8889;SDS011;4481;43.406;24.454;2023-04-09T00:23:22;30.87;;;23.57;;
8889;SDS011;4481;43.406;24.454;2023-04-09T00:25:48;29.63;;;25.07;;
8889;SDS011;4481;43.406;24.454;2023-04-09T00:28:15;32.47;;;26.13;;
8889;SDS011;4481;43.406;24.454;2023-04-09T00:30:41;30.10;;;26.07;;
8889;SDS011;4481;43.406;24.454;2023-04-09T00:33:07;28.67;;;24.83;;
8889;SDS011;4481;43.406;24.454;2023-04-09T00:35:34;32.83;;;25.50;;
8889;SDS011;4481;43.406;24.454;2023-04-09T00:38:00;29.93;;;24.67;;
8889;SDS011;4481;43.406;24.454;2023-04-09T00:40:26;29.23;;;23.73;;
8889;SDS011;4481;43.406;24.454;2023-04-09T00:42:52;27.67;;;24.13;;
8889;SDS011;4481;43.406;24.454;2023-04-09T00:45:19;31.47;;;24.53;;
8889;SDS011;4481;43.406;24.454;2023-04-09T00:47:45;31.73;;;24.67;;
8889;SDS011;4481;43.406;24.454;2023-04-09T00:50:12;30.07;;;24.73;;
8889;SDS011;4481;43.406;24.454;2023-04-09T00:52:38;30.10;;;25.73;;
8889;SDS011;4481;43.406;24.454;2023-04-09T00:55:05;33.33;;;25.87;;
8889;SDS011;4481;43.406;24.454;2023-04-09T00:57:32;35.10;;;27.17;;
8889;SDS011;4481;43.406;24.454;2023-04-09T00:59:58;33.33;;;26.77;;
8889;SDS011;4481;43.406;24.454;2023-04-09T01:02:25;29.97;;;25.23;;
8889;SDS011;4481;43.406;24.454;2023-04-09T01:04:52;33.23;;;25.70;;
8889;SDS011;4481;43.406;24.454;2023-04-09T01:07:19;35.33;;;26.73;;
8889;SDS011;4481;43.406;24.454;2023-04-09T01:09:57;30.83;;;25.60;;
8889;SDS011;4481;43.406;24.454;2023-04-09T01:12:31;32.43;;;25.23;;
8889;SDS011;4481;43.406;24.454;2023-04-09T01:15:02;32.93;;;26.03;;
8889;SDS011;4481;43.406;24.454;2023-04-09T01:17:33;32.37;;;25.43;;
8889;SDS011;4481;43.406;24.454;2023-04-09T01:20:07;32.80;;;25.27;;
8889;SDS011;4481;43.406;24.454;2023-04-09T01:22:39;33.07;;;26.03;;
8889;SDS011;4481;43.406;24.454;2023-04-09T01:25:17;30.40;;;25.80;;
8889;SDS011;4481;43.406;24.454;2023-04-09T01:28:13;28.33;;;25.33;;
8889;SDS011;4481;43.406;24.454;2023-04-09T01:30:40;35.60;;;26.77;;
8889;SDS011;4481;43.406;24.454;2023-04-09T01:33:11;34.57;;;27.77;;
8889;SDS011;4481;43.406;24.454;2023-04-09T01:35:39;30.33;;;25.70;;
8889;SDS011;4481;43.406;24.454;2023-04-09T01:38:07;33.43;;;25.80;;
8889;SDS011;4481;43.406;24.454;2023-04-09T01:40:34;32.53;;;24.30;;
8889;SDS011;4481;43.406;24.454;2023-04-09T01:43:00;30.80;;;25.20;;
8889;SDS011;4481;43.406;24.454;2023-04-09T01:45:28;28.70;;;25.60;;
8889;SDS011;4481;43.406;24.454;2023-04-09T01:47:54;33.20;;;24.63;;
8889;SDS011;4481;43.406;24.454;2023-04-09T01:50:21;29.97;;;25.43;;
8889;SDS011;4481;43.406;24.454;2023-04-09T01:52:48;32.03;;;25.37;;
8889;SDS011;4481;43.406;24.454;2023-04-09T01:55:15;36.63;;;26.43;;
8889;SDS011;4481;43.406;24.454;2023-04-09T01:57:41;28.93;;;24.87;;
8889;SDS011;4481;43.406;24.454;2023-04-09T02:00:07;35.77;;;27.37;;
8889;SDS011;4481;43.406;24.454;2023-04-09T02:02:36;34.47;;;26.63;;
8889;SDS011;4481;43.406;24.454;2023-04-09T02:05:07;34.00;;;26.50;;
8889;SDS011;4481;43.406;24.454;2023-04-09T02:07:37;36.77;;;28.47;;
8889;SDS011;4481;43.406;24.454;2023-04-09T02:10:08;32.37;;;28.03;;
8889;SDS011;4481;43.406;24.454;2023-04-09T02:12:36;34.23;;;27.13;;
8889;SDS011;4481;43.406;24.454;2023-04-09T02:15:04;33.77;;;27.60;;
8889;SDS011;4481;43.406;24.454;2023-04-09T02:17:32;38.17;;;30.77;;
8889;SDS011;4481;43.406;24.454;2023-04-09T02:19:58;38.43;;;32.17;;
8889;SDS011;4481;43.406;24.454;2023-04-09T02:22:25;38.90;;;31.17;;
8889;SDS011;4481;43.406;24.454;2023-04-09T02:24:51;36.53;;;30.27;;
8889;SDS011;4481;43.406;24.454;2023-04-09T02:27:17;43.67;;;31.37;;
8889;SDS011;4481;43.406;24.454;2023-04-09T02:29:43;45.13;;;33.37;;
8889;SDS011;4481;43.406;24.454;2023-04-09T02:32:09;40.30;;;32.63;;
8889;SDS011;4481;43.406;24.454;2023-04-09T02:34:35;42.10;;;32.00;;
8889;SDS011;4481;43.406;24.454;2023-04-09T02:37:02;39.63;;;31.50;;
8889;SDS011;4481;43.406;24.454;2023-04-09T02:39:28;45.63;;;32.57;;
8889;SDS011;4481;43.406;24.454;2023-04-09T02:41:55;39.83;;;30.97;;
8889;SDS011;4481;43.406;24.454;2023-04-09T02:44:21;39.47;;;31.50;;
8889;SDS011;4481;43.406;24.454;2023-04-09T02:46:48;44.37;;;31.57;;
8889;SDS011;4481;43.406;24.454;2023-04-09T02:49:15;40.83;;;31.67;;
8889;SDS011;4481;43.406;24.454;2023-04-09T02:51:42;42.63;;;32.27;;
8889;SDS011;4481;43.406;24.454;2023-04-09T02:54:08;42.57;;;32.60;;
8889;SDS011;4481;43.406;24.454;2023-04-09T02:56:34;41.60;;;32.13;;
8889;SDS011;4481;43.406;24.454;2023-04-09T02:59:01;43.77;;;32.87;;
8889;SDS011;4481;43.406;24.454;2023-04-09T03:01:27;49.10;;;34.50;;
8889;SDS011;4481;43.406;24.454;2023-04-09T03:03:53;43.57;;;34.07;;
8889;SDS011;4481;43.406;24.454;2023-04-09T03:06:19;45.20;;;34.13;;
8889;SDS011;4481;43.406;24.454;2023-04-09T03:08:45;42.00;;;33.73;;
8889;SDS011;4481;43.406;24.454;2023-04-09T03:11:12;47.07;;;34.70;;
8889;SDS011;4481;43.406;24.454;2023-04-09T03:13:38;47.13;;;36.20;;
8889;SDS011;4481;43.406;24.454;2023-04-09T03:16:05;45.70;;;36.43;;
8889;SDS011;4481;43.406;24.454;2023-04-09T03:18:31;48.83;;;36.13;;
8889;SDS011;4481;43.406;24.454;2023-04-09T03:20:57;50.70;;;37.40;;
8889;SDS011;4481;43.406;24.454;2023-04-09T03:23:23;42.30;;;34.30;;
8889;SDS011;4481;43.406;24.454;2023-04-09T03:25:58;48.97;;;34.70;;
8889;SDS011;4481;43.406;24.454;2023-04-09T03:28:26;49.03;;;35.97;;
8889;SDS011;4481;43.406;24.454;2023-04-09T03:30:52;42.87;;;34.17;;
8889;SDS011;4481;43.406;24.454;2023-04-09T03:33:18;39.67;;;32.80;;
8889;SDS011;4481;43.406;24.454;2023-04-09T03:35:44;42.30;;;34.33;;
8889;SDS011;4481;43.406;24.454;2023-04-09T03:38:10;46.40;;;35.00;;
8889;SDS011;4481;43.406;24.454;2023-04-09T03:40:36;41.77;;;34.60;;
8889;SDS011;4481;43.406;24.454;2023-04-09T03:43:02;38.57;;;32.70;;
8889;SDS011;4481;43.406;24.454;2023-04-09T03:45:29;46.30;;;34.37;;
8889;SDS011;4481;43.406;24.454;2023-04-09T03:47:55;47.00;;;35.80;;
8889;SDS011;4481;43.406;24.454;2023-04-09T03:50:21;48.63;;;36.33;;
8889;SDS011;4481;43.406;24.454;2023-04-09T03:52:47;45.13;;;36.03;;
8889;SDS011;4481;43.406;24.454;2023-04-09T03:55:14;43.77;;;34.73;;
8889;SDS011;4481;43.406;24.454;2023-04-09T03:57:40;41.20;;;33.73;;
8889;SDS011;4481;43.406;24.454;2023-04-09T04:00:06;43.57;;;33.90;;
8889;SDS011;4481;43.406;24.454;2023-04-09T04:02:34;41.97;;;32.87;;
8889;SDS011;4481;43.406;24.454;2023-04-09T04:05:00;39.80;;;32.63;;
8889;SDS011;4481;43.406;24.454;2023-04-09T04:07:26;42.63;;;33.40;;
8889;SDS011;4481;43.406;24.454;2023-04-09T04:09:52;38.43;;;32.17;;
8889;SDS011;4481;43.406;24.454;2023-04-09T04:12:18;39.33;;;30.93;;
8889;SDS011;4481;43.406;24.454;2023-04-09T04:14:45;46.93;;;33.93;;
8889;SDS011;4481;43.406;24.454;2023-04-09T04:17:11;35.83;;;30.30;;
8889;SDS011;4481;43.406;24.454;2023-04-09T04:19:37;35.50;;;29.10;;
8889;SDS011;4481;43.406;24.454;2023-04-09T04:22:04;37.03;;;30.00;;
8889;SDS011;4481;43.406;24.454;2023-04-09T04:24:30;36.90;;;27.97;;
8889;SDS011;4481;43.406;24.454;2023-04-09T04:26:56;37.93;;;28.57;;
8889;SDS011;4481;43.406;24.454;2023-04-09T04:29:22;35.67;;;27.70;;
8889;SDS011;4481;43.406;24.454;2023-04-09T04:31:48;33.00;;;27.00;;
8889;SDS011;4481;43.406;24.454;2023-04-09T04:34:14;35.20;;;26.60;;
8889;SDS011;4481;43.406;24.454;2023-04-09T04:36:41;39.37;;;29.10;;
8889;SDS011;4481;43.406;24.454;2023-04-09T04:39:07;37.43;;;30.07;;
8889;SDS011;4481;43.406;24.454;2023-04-09T04:41:33;43.27;;;31.80;;
8889;SDS011;4481;43.406;24.454;2023-04-09T04:44:00;43.40;;;32.27;;
8889;SDS011;4481;43.406;24.454;2023-04-09T04:46:26;37.83;;;30.70;;
8889;SDS011;4481;43.406;24.454;2023-04-09T04:48:52;41.13;;;31.17;;
8889;SDS011;4481;43.406;24.454;2023-04-09T04:51:18;36.80;;;29.57;;
8889;SDS011;4481;43.406;24.454;2023-04-09T04:53:45;34.90;;;29.80;;
8889;SDS011;4481;43.406;24.454;2023-04-09T04:56:11;39.50;;;29.77;;
8889;SDS011;4481;43.406;24.454;2023-04-09T04:58:38;38.63;;;30.13;;
8889;SDS011;4481;43.406;24.454;2023-04-09T05:01:05;35.57;;;28.43;;
8889;SDS011;4481;43.406;24.454;2023-04-09T05:03:31;36.17;;;28.13;;
8889;SDS011;4481;43.406;24.454;2023-04-09T05:05:57;34.50;;;27.90;;
8889;SDS011;4481;43.406;24.454;2023-04-09T05:08:23;35.50;;;28.67;;
8889;SDS011;4481;43.406;24.454;2023-04-09T05:10:50;33.47;;;28.07;;
8889;SDS011;4481;43.406;24.454;2023-04-09T05:13:20;31.87;;;25.37;;
8889;SDS011;4481;43.406;24.454;2023-04-09T05:15:46;37.57;;;28.40;;
8889;SDS011;4481;43.406;24.454;2023-04-09T05:18:12;33.47;;;27.17;;
8889;SDS011;4481;43.406;24.454;2023-04-09T05:20:38;32.87;;;26.30;;
8889;SDS011;4481;43.406;24.454;2023-04-09T05:23:04;31.87;;;24.17;;
8889;SDS011;4481;43.406;24.454;2023-04-09T05:25:30;30.53;;;25.23;;
8889;SDS011;4481;43.406;24.454;2023-04-09T05:27:57;31.33;;;25.93;;
8889;SDS011;4481;43.406;24.454;2023-04-09T05:30:23;32.87;;;26.30;;
8889;SDS011;4481;43.406;24.454;2023-04-09T05:32:49;31.53;;;25.63;;
8889;SDS011;4481;43.406;24.454;2023-04-09T05:35:15;31.83;;;24.70;;
8889;SDS011;4481;43.406;24.454;2023-04-09T05:37:42;33.23;;;26.40;;
8889;SDS011;4481;43.406;24.454;2023-04-09T05:40:08;34.23;;;25.40;;
8889;SDS011;4481;43.406;24.454;2023-04-09T05:42:35;37.93;;;26.57;;
8889;SDS011;4481;43.406;24.454;2023-04-09T05:45:02;31.37;;;23.87;;
8889;SDS011;4481;43.406;24.454;2023-04-09T05:47:29;34.47;;;26.77;;
8889;SDS011;4481;43.406;24.454;2023-04-09T05:49:55;36.57;;;26.33;;
8889;SDS011;4481;43.406;24.454;2023-04-09T05:52:21;38.33;;;26.97;;
8889;SDS011;4481;43.406;24.454;2023-04-09T05:54:47;34.97;;;26.70;;
8889;SDS011;4481;43.406;24.454;2023-04-09T05:57:14;35.07;;;26.23;;
8889;SDS011;4481;43.406;24.454;2023-04-09T05:59:40;32.20;;;25.90;;
8889;SDS011;4481;43.406;24.454;2023-04-09T06:02:07;31.73;;;27.00;;
8889;SDS011;4481;43.406;24.454;2023-04-09T06:04:33;31.33;;;26.37;;
8889;SDS011;4481;43.406;24.454;2023-04-09T06:06:59;32.03;;;25.67;;
8889;SDS011;4481;43.406;24.454;2023-04-09T06:09:25;30.67;;;24.83;;
8889;SDS011;4481;43.406;24.454;2023-04-09T06:11:51;32.03;;;25.47;;
8889;SDS011;4481;43.406;24.454;2023-04-09T06:14:18;32.67;;;25.30;;
8889;SDS011;4481;43.406;24.454;2023-04-09T06:16:44;28.87;;;24.50;;
8889;SDS011;4481;43.406;24.454;2023-04-09T06:19:11;30.93;;;24.63;;
8889;SDS011;4481;43.406;24.454;2023-04-09T06:21:37;32.57;;;24.57;;
8889;SDS011;4481;43.406;24.454;2023-04-09T06:24:05;29.63;;;24.37;;
8889;SDS011;4481;43.406;24.454;2023-04-09T06:26:31;29.33;;;24.67;;
8889;SDS011;4481;43.406;24.454;2023-04-09T06:28:57;29.37;;;24.90;;
8889;SDS011;4481;43.406;24.454;2023-04-09T06:31:23;29.97;;;24.23;;
8889;SDS011;4481;43.406;24.454;2023-04-09T06:33:50;28.97;;;24.77;;
8889;SDS011;4481;43.406;24.454;2023-04-09T06:36:16;29.10;;;23.00;;
8889;SDS011;4481;43.406;24.454;2023-04-09T06:38:43;27.77;;;24.13;;
8889;SDS011;4481;43.406;24.454;2023-04-09T06:41:09;30.17;;;25.23;;
8889;SDS011;4481;43.406;24.454;2023-04-09T06:43:36;30.53;;;24.03;;
8889;SDS011;4481;43.406;24.454;2023-04-09T06:46:02;28.33;;;23.23;;
8889;SDS011;4481;43.406;24.454;2023-04-09T06:48:29;25.97;;;23.07;;
8889;SDS011;4481;43.406;24.454;2023-04-09T06:50:55;29.03;;;22.97;;
8889;SDS011;4481;43.406;24.454;2023-04-09T06:53:22;26.27;;;22.57;;
8889;SDS011;4481;43.406;24.454;2023-04-09T06:55:48;25.80;;;22.90;;
8889;SDS011;4481;43.406;24.454;2023-04-09T06:58:14;24.73;;;22.03;;
8889;SDS011;4481;43.406;24.454;2023-04-09T07:00:41;29.93;;;22.97;;
8889;SDS011;4481;43.406;24.454;2023-04-09T07:03:07;29.03;;;22.07;;
8889;SDS011;4481;43.406;24.454;2023-04-09T07:05:33;26.03;;;22.10;;
8889;SDS011;4481;43.406;24.454;2023-04-09T07:08:00;30.73;;;22.73;;
8889;SDS011;4481;43.406;24.454;2023-04-09T07:10:26;29.73;;;23.53;;
8889;SDS011;4481;43.406;24.454;2023-04-09T07:12:52;27.77;;;23.57;;
8889;SDS011;4481;43.406;24.454;2023-04-09T07:15:19;27.63;;;23.83;;
8889;SDS011;4481;43.406;24.454;2023-04-09T07:17:45;26.23;;;22.60;;
8889;SDS011;4481;43.406;24.454;2023-04-09T07:20:11;27.67;;;23.50;;
8889;SDS011;4481;43.406;24.454;2023-04-09T07:22:37;27.03;;;23.63;;
8889;SDS011;4481;43.406;24.454;2023-04-09T07:25:04;28.00;;;23.50;;
8889;SDS011;4481;43.406;24.454;2023-04-09T07:27:31;26.30;;;23.03;;
8889;SDS011;4481;43.406;24.454;2023-04-09T07:29:58;26.17;;;22.53;;
8889;SDS011;4481;43.406;24.454;2023-04-09T07:32:25;27.17;;;22.57;;
8889;SDS011;4481;43.406;24.454;2023-04-09T07:34:52;25.93;;;23.13;;
8889;SDS011;4481;43.406;24.454;2023-04-09T07:37:18;26.83;;;22.03;;
8889;SDS011;4481;43.406;24.454;2023-04-09T07:39:45;29.30;;;22.57;;
8889;SDS011;4481;43.406;24.454;2023-04-09T07:42:12;29.43;;;22.57;;
8889;SDS011;4481;43.406;24.454;2023-04-09T07:44:39;25.33;;;22.03;;
8889;SDS011;4481;43.406;24.454;2023-04-09T07:47:06;24.23;;;21.70;;
8889;SDS011;4481;43.406;24.454;2023-04-09T07:49:34;25.80;;;22.10;;
8889;SDS011;4481;43.406;24.454;2023-04-09T07:52:00;23.43;;;20.87;;
8889;SDS011;4481;43.406;24.454;2023-04-09T07:54:26;25.57;;;22.23;;
8889;SDS011;4481;43.406;24.454;2023-04-09T07:56:53;24.57;;;21.00;;
8889;SDS011;4481;43.406;24.454;2023-04-09T07:59:19;21.57;;;19.23;;
8889;SDS011;4481;43.406;24.454;2023-04-09T08:01:45;26.03;;;20.77;;
8889;SDS011;4481;43.406;24.454;2023-04-09T08:04:11;22.17;;;19.50;;
8889;SDS011;4481;43.406;24.454;2023-04-09T08:06:38;23.10;;;20.60;;
8889;SDS011;4481;43.406;24.454;2023-04-09T08:09:04;24.57;;;20.83;;
8889;SDS011;4481;43.406;24.454;2023-04-09T08:11:30;23.97;;;20.93;;
8889;SDS011;4481;43.406;24.454;2023-04-09T08:13:57;23.23;;;20.37;;
8889;SDS011;4481;43.406;24.454;2023-04-09T08:16:25;23.70;;;21.17;;
8889;SDS011;4481;43.406;24.454;2023-04-09T08:18:52;23.93;;;21.37;;
8889;SDS011;4481;43.406;24.454;2023-04-09T08:21:18;23.57;;;20.50;;
8889;SDS011;4481;43.406;24.454;2023-04-09T08:23:45;22.67;;;20.17;;
8889;SDS011;4481;43.406;24.454;2023-04-09T08:26:11;24.17;;;20.80;;
8889;SDS011;4481;43.406;24.454;2023-04-09T08:28:37;26.93;;;20.90;;
8889;SDS011;4481;43.406;24.454;2023-04-09T08:31:04;22.63;;;20.07;;
8889;SDS011;4481;43.406;24.454;2023-04-09T08:33:30;25.30;;;21.77;;
8889;SDS011;4481;43.406;24.454;2023-04-09T08:35:57;24.27;;;20.43;;
8889;SDS011;4481;43.406;24.454;2023-04-09T08:38:23;22.90;;;19.20;;
8889;SDS011;4481;43.406;24.454;2023-04-09T08:40:50;24.73;;;19.40;;
8889;SDS011;4481;43.406;24.454;2023-04-09T08:43:16;23.63;;;20.30;;
8889;SDS011;4481;43.406;24.454;2023-04-09T08:45:47;22.43;;;18.90;;
8889;SDS011;4481;43.406;24.454;2023-04-09T08:48:13;22.73;;;19.43;;
8889;SDS011;4481;43.406;24.454;2023-04-09T08:50:40;21.10;;;18.60;;
8889;SDS011;4481;43.406;24.454;2023-04-09T08:53:07;24.17;;;19.27;;
8889;SDS011;4481;43.406;24.454;2023-04-09T08:55:34;21.07;;;18.77;;
8889;SDS011;4481;43.406;24.454;2023-04-09T08:58:03;21.60;;;18.53;;
8889;SDS011;4481;43.406;24.454;2023-04-09T09:00:31;21.73;;;19.13;;
8889;SDS011;4481;43.406;24.454;2023-04-09T09:03:00;21.93;;;17.73;;
8889;SDS011;4481;43.406;24.454;2023-04-09T09:05:34;21.40;;;19.13;;
8889;SDS011;4481;43.406;24.454;2023-04-09T09:08:00;19.40;;;17.43;;
8889;SDS011;4481;43.406;24.454;2023-04-09T09:10:36;20.77;;;18.23;;
8889;SDS011;4481;43.406;24.454;2023-04-09T09:13:11;20.47;;;17.87;;
8889;SDS011;4481;43.406;24.454;2023-04-09T09:15:41;20.63;;;17.47;;
8889;SDS011;4481;43.406;24.454;2023-04-09T09:18:07;20.13;;;17.73;;
8889;SDS011;4481;43.406;24.454;2023-04-09T09:20:34;20.13;;;18.10;;
8889;SDS011;4481;43.406;24.454;2023-04-09T09:23:00;20.03;;;17.83;;
8889;SDS011;4481;43.406;24.454;2023-04-09T09:25:26;21.63;;;18.33;;
8889;SDS011;4481;43.406;24.454;2023-04-09T09:27:55;19.47;;;17.37;;
8889;SDS011;4481;43.406;24.454;2023-04-09T09:30:31;21.93;;;17.17;;
8889;SDS011;4481;43.406;24.454;2023-04-09T09:33:03;24.67;;;20.70;;
8889;SDS011;4481;43.406;24.454;2023-04-09T09:35:31;22.33;;;18.23;;
8889;SDS011;4481;43.406;24.454;2023-04-09T09:38:12;20.40;;;17.07;;
8889;SDS011;4481;43.406;24.454;2023-04-09T09:40:40;21.33;;;17.67;;
8889;SDS011;4481;43.406;24.454;2023-04-09T09:43:07;19.10;;;17.10;;
8889;SDS011;4481;43.406;24.454;2023-04-09T09:45:33;24.53;;;21.03;;
8889;SDS011;4481;43.406;24.454;2023-04-09T09:48:00;22.07;;;19.53;;
8889;SDS011;4481;43.406;24.454;2023-04-09T09:50:28;23.83;;;20.10;;
8889;SDS011;4481;43.406;24.454;2023-04-09T09:52:57;20.33;;;18.13;;
8889;SDS011;4481;43.406;24.454;2023-04-09T09:55:28;20.60;;;17.40;;
8889;SDS011;4481;43.406;24.454;2023-04-09T09:57:56;18.93;;;16.57;;
8889;SDS011;4481;43.406;24.454;2023-04-09T10:00:27;16.70;;;15.00;;
8889;SDS011;4481;43.406;24.454;2023-04-09T10:02:56;17.87;;;15.97;;
8889;SDS011;4481;43.406;24.454;2023-04-09T10:05:27;16.50;;;14.90;;
8889;SDS011;4481;43.406;24.454;2023-04-09T10:07:55;17.50;;;15.60;;
8889;SDS011;4481;43.406;24.454;2023-04-09T10:10:22;18.13;;;15.77;;
8889;SDS011;4481;43.406;24.454;2023-04-09T10:12:50;16.57;;;14.73;;
8889;SDS011;4481;43.406;24.454;2023-04-09T10:15:17;17.50;;;15.10;;
8889;SDS011;4481;43.406;24.454;2023-04-09T10:17:44;16.63;;;14.53;;
8889;SDS011;4481;43.406;24.454;2023-04-09T10:20:11;15.20;;;13.67;;
8889;SDS011;4481;43.406;24.454;2023-04-09T10:22:42;14.90;;;13.37;;
8889;SDS011;4481;43.406;24.454;2023-04-09T10:25:12;14.43;;;12.93;;
8889;SDS011;4481;43.406;24.454;2023-04-09T10:27:39;14.43;;;12.90;;
8889;SDS011;4481;43.406;24.454;2023-04-09T10:30:08;14.97;;;12.57;;
8889;SDS011;4481;43.406;24.454;2023-04-09T10:32:35;14.40;;;12.23;;
8889;SDS011;4481;43.406;24.454;2023-04-09T10:35:02;15.67;;;13.17;;
8889;SDS011;4481;43.406;24.454;2023-04-09T10:37:29;14.77;;;13.27;;
8889;SDS011;4481;43.406;24.454;2023-04-09T10:39:55;15.57;;;13.97;;
8889;SDS011;4481;43.406;24.454;2023-04-09T10:42:23;13.13;;;11.73;;
8889;SDS011;4481;43.406;24.454;2023-04-09T10:45:03;14.20;;;11.93;;
8889;SDS011;4481;43.406;24.454;2023-04-09T10:47:32;12.33;;;10.77;;
8889;SDS011;4481;43.406;24.454;2023-04-09T10:50:13;15.57;;;11.03;;
8889;SDS011;4481;43.406;24.454;2023-04-09T10:52:41;12.73;;;10.60;;
8889;SDS011;4481;43.406;24.454;2023-04-09T10:55:08;11.40;;;10.30;;
8889;SDS011;4481;43.406;24.454;2023-04-09T10:57:34;12.50;;;11.30;;
8889;SDS011;4481;43.406;24.454;2023-04-09T11:00:01;12.50;;;11.17;;
8889;SDS011;4481;43.406;24.454;2023-04-09T11:02:44;11.63;;;10.47;;
8889;SDS011;4481;43.406;24.454;2023-04-09T11:05:31;14.00;;;10.60;;
8889;SDS011;4481;43.406;24.454;2023-04-09T11:08:02;13.10;;;11.50;;
8889;SDS011;4481;43.406;24.454;2023-04-09T11:10:30;12.67;;;10.93;;
8889;SDS011;4481;43.406;24.454;2023-04-09T11:12:57;12.13;;;10.93;;
8889;SDS011;4481;43.406;24.454;2023-04-09T11:15:23;12.10;;;11.00;;
8889;SDS011;4481;43.406;24.454;2023-04-09T11:17:49;12.57;;;11.27;;
8889;SDS011;4481;43.406;24.454;2023-04-09T11:20:16;13.07;;;11.77;;
8889;SDS011;4481;43.406;24.454;2023-04-09T11:22:46;16.20;;;11.10;;
8889;SDS011;4481;43.406;24.454;2023-04-09T11:25:16;12.37;;;11.07;;
8889;SDS011;4481;43.406;24.454;2023-04-09T11:27:44;12.87;;;10.67;;
8889;SDS011;4481;43.406;24.454;2023-04-09T11:30:11;11.47;;;10.33;;
8889;SDS011;4481;43.406;24.454;2023-04-09T11:32:37;13.07;;;10.40;;
8889;SDS011;4481;43.406;24.454;2023-04-09T11:35:04;10.40;;;9.30;;
8889;SDS011;4481;43.406;24.454;2023-04-09T11:37:36;11.30;;;10.20;;
8889;SDS011;4481;43.406;24.454;2023-04-09T11:40:04;10.97;;;9.87;;
8889;SDS011;4481;43.406;24.454;2023-04-09T11:42:31;11.93;;;10.17;;
8889;SDS011;4481;43.406;24.454;2023-04-09T11:44:57;11.17;;;9.97;;
8889;SDS011;4481;43.406;24.454;2023-04-09T11:47:25;12.23;;;10.27;;
8889;SDS011;4481;43.406;24.454;2023-04-09T11:49:51;10.40;;;9.33;;
8889;SDS011;4481;43.406;24.454;2023-04-09T11:52:18;10.80;;;9.37;;
8889;SDS011;4481;43.406;24.454;2023-04-09T11:54:47;8.03;;;7.33;;
8889;SDS011;4481;43.406;24.454;2023-04-09T11:57:14;9.23;;;8.27;;
8889;SDS011;4481;43.406;24.454;2023-04-09T11:59:40;9.30;;;8.27;;
8889;SDS011;4481;43.406;24.454;2023-04-09T12:02:07;9.10;;;8.23;;
8889;SDS011;4481;43.406;24.454;2023-04-09T12:04:33;8.37;;;7.57;;
8889;SDS011;4481;43.406;24.454;2023-04-09T12:06:59;8.30;;;7.60;;
8889;SDS011;4481;43.406;24.454;2023-04-09T12:09:25;9.37;;;8.43;;
8889;SDS011;4481;43.406;24.454;2023-04-09T12:11:52;8.67;;;7.87;;
8889;SDS011;4481;43.406;24.454;2023-04-09T12:14:20;7.60;;;6.90;;
8889;SDS011;4481;43.406;24.454;2023-04-09T12:16:49;8.17;;;7.30;;
8889;SDS011;4481;43.406;24.454;2023-04-09T12:19:16;7.83;;;7.03;;
8889;SDS011;4481;43.406;24.454;2023-04-09T12:21:47;8.23;;;7.43;;
8889;SDS011;4481;43.406;24.454;2023-04-09T12:24:13;8.23;;;7.37;;
8889;SDS011;4481;43.406;24.454;2023-04-09T12:26:41;8.20;;;7.13;;
8889;SDS011;4481;43.406;24.454;2023-04-09T12:29:07;7.73;;;6.93;;
8889;SDS011;4481;43.406;24.454;2023-04-09T12:31:34;7.00;;;6.30;;
8889;SDS011;4481;43.406;24.454;2023-04-09T12:34:00;7.97;;;7.27;;
8889;SDS011;4481;43.406;24.454;2023-04-09T12:36:26;8.57;;;7.50;;
8889;SDS011;4481;43.406;24.454;2023-04-09T12:38:53;9.67;;;7.63;;
8889;SDS011;4481;43.406;24.454;2023-04-09T12:41:20;8.33;;;7.30;;
8889;SDS011;4481;43.406;24.454;2023-04-09T12:43:46;8.77;;;6.97;;
8889;SDS011;4481;43.406;24.454;2023-04-09T12:46:13;8.83;;;7.93;;
8889;SDS011;4481;43.406;24.454;2023-04-09T12:48:40;8.67;;;7.17;;
8889;SDS011;4481;43.406;24.454;2023-04-09T12:51:06;10.17;;;8.10;;
8889;SDS011;4481;43.406;24.454;2023-04-09T12:53:33;8.93;;;7.73;;
8889;SDS011;4481;43.406;24.454;2023-04-09T12:55:59;8.17;;;7.47;;
8889;SDS011;4481;43.406;24.454;2023-04-09T12:58:25;8.53;;;7.17;;
8889;SDS011;4481;43.406;24.454;2023-04-09T13:00:51;7.13;;;6.43;;
8889;SDS011;4481;43.406;24.454;2023-04-09T13:03:18;8.77;;;6.87;;
8889;SDS011;4481;43.406;24.454;2023-04-09T13:05:45;8.47;;;7.50;;
8889;SDS011;4481;43.406;24.454;2023-04-09T13:08:12;9.03;;;8.13;;
8889;SDS011;4481;43.406;24.454;2023-04-09T13:10:38;8.87;;;8.00;;
8889;SDS011;4481;43.406;24.454;2023-04-09T13:13:04;7.93;;;7.13;;
8889;SDS011;4481;43.406;24.454;2023-04-09T13:15:35;8.20;;;7.13;;
8889;SDS011;4481;43.406;24.454;2023-04-09T13:18:02;7.67;;;6.80;;
8889;SDS011;4481;43.406;24.454;2023-04-09T13:20:28;8.53;;;7.37;;
8889;SDS011;4481;43.406;24.454;2023-04-09T13:22:55;10.70;;;7.93;;
8889;SDS011;4481;43.406;24.454;2023-04-09T13:25:21;8.67;;;7.77;;
8889;SDS011;4481;43.406;24.454;2023-04-09T13:27:48;9.73;;;7.63;;
8889;SDS011;4481;43.406;24.454;2023-04-09T13:30:14;7.53;;;6.73;;
8889;SDS011;4481;43.406;24.454;2023-04-09T13:32:40;7.30;;;6.57;;
8889;SDS011;4481;43.406;24.454;2023-04-09T13:35:07;7.83;;;7.13;;
8889;SDS011;4481;43.406;24.454;2023-04-09T13:37:34;8.13;;;7.10;;
8889;SDS011;4481;43.406;24.454;2023-04-09T13:40:01;6.73;;;6.00;;
8889;SDS011;4481;43.406;24.454;2023-04-09T13:42:27;8.03;;;7.03;;
8889;SDS011;4481;43.406;24.454;2023-04-09T13:44:53;11.27;;;10.10;;
8889;SDS011;4481;43.406;24.454;2023-04-09T13:47:20;15.67;;;11.90;;
8889;SDS011;4481;43.406;24.454;2023-04-09T13:49:48;15.43;;;13.93;;
8889;SDS011;4481;43.406;24.454;2023-04-09T13:52:15;16.47;;;14.70;;
8889;SDS011;4481;43.406;24.454;2023-04-09T13:54:42;18.07;;;15.97;;
8889;SDS011;4481;43.406;24.454;2023-04-09T13:57:09;20.97;;;15.97;;
8889;SDS011;4481;43.406;24.454;2023-04-09T13:59:35;19.17;;;17.17;;
8889;SDS011;4481;43.406;24.454;2023-04-09T14:02:02;19.87;;;17.93;;
8889;SDS011;4481;43.406;24.454;2023-04-09T14:04:28;21.63;;;18.10;;
8889;SDS011;4481;43.406;24.454;2023-04-09T14:06:54;18.70;;;16.40;;
8889;SDS011;4481;43.406;24.454;2023-04-09T14:09:21;18.47;;;16.57;;
8889;SDS011;4481;43.406;24.454;2023-04-09T14:11:47;20.30;;;15.97;;
8889;SDS011;4481;43.406;24.454;2023-04-09T14:14:14;20.23;;;17.77;;
8889;SDS011;4481;43.406;24.454;2023-04-09T14:16:41;24.70;;;16.10;;
8889;SDS011;4481;43.406;24.454;2023-04-09T14:19:08;20.73;;;16.63;;
8889;SDS011;4481;43.406;24.454;2023-04-09T14:21:34;18.63;;;15.97;;
8889;SDS011;4481;43.406;24.454;2023-04-09T14:24:00;16.83;;;14.63;;
8889;SDS011;4481;43.406;24.454;2023-04-09T14:26:26;19.33;;;14.77;;
8889;SDS011;4481;43.406;24.454;2023-04-09T14:28:53;14.50;;;13.03;;
8889;SDS011;4481;43.406;24.454;2023-04-09T14:31:20;14.10;;;12.50;;
8889;SDS011;4481;43.406;24.454;2023-04-09T14:33:46;13.13;;;11.83;;
8889;SDS011;4481;43.406;24.454;2023-04-09T14:36:12;15.60;;;13.97;;
8889;SDS011;4481;43.406;24.454;2023-04-09T14:38:38;17.73;;;14.97;;